Salonica, Greece
Current Conditions -  °F | °C
As of 9:50 PM on Friday 21 Nov 2014 (Local Time) from LGTS Reporting Station
Clear Clear  
Wind Chill: 12°   Ceiling: Unl
Heat Index: 12°   Visibility: 6mi
Dew Point:   Wind: 12mph
Humidity: 54%   Direction: 350°N
Pressure: 30.15"   Gusts: NA
Location:  40.52°N, 22.97°E
Report Text: LGTS 211850Z 35010KT CAVOK 12/03 Q1021 NOSIG
Loading
Personal Weather Stations






























Interactive Weather Map New forecast layout! Learn more

10-Day Weather Forecast

Advertisements
Track Severe Weather on mobile